sensor_id;sensor_type;location;lat;lon;timestamp;pressure;altitude;pressure_sealevel;temperature
7830;BMP180;3960;51.86894000;5.39848000;2023-02-12T00:01:34;103891.91;;;7.45
7830;BMP180;3960;51.86894000;5.39848000;2023-02-12T00:03:59;103886.53;;;7.45
7830;BMP180;3960;51.86894000;5.39848000;2023-02-12T00:06:25;103896.25;;;7.55
7830;BMP180;3960;51.86894000;5.39848000;2023-02-12T00:08:52;103912.28;;;7.60
7830;BMP180;3960;51.86894000;5.39848000;2023-02-12T00:11:20;103905.78;;;7.61
7830;BMP180;3960;51.86894000;5.39848000;2023-02-12T00:13:45;103911.19;;;7.61
7830;BMP180;3960;51.86894000;5.39848000;2023-02-12T00:16:13;103895.75;;;7.53
7830;BMP180;3960;51.86894000;5.39848000;2023-02-12T00:18:39;103902.59;;;7.59
7830;BMP180;3960;51.86894000;5.39848000;2023-02-12T00:21:05;103898.44;;;7.53
7830;BMP180;3960;51.86894000;5.39848000;2023-02-12T00:23:33;103908.91;;;7.54
7830;BMP180;3960;51.86894000;5.39848000;2023-02-12T00:25:58;103918.28;;;7.57
7830;BMP180;3960;51.86894000;5.39848000;2023-02-12T00:28:24;103909.22;;;7.53
7830;BMP180;3960;51.86894000;5.39848000;2023-02-12T00:30:49;103902.56;;;7.50
7830;BMP180;3960;51.86894000;5.39848000;2023-02-12T00:33:14;103911.75;;;7.49
7830;BMP180;3960;51.86894000;5.39848000;2023-02-12T00:35:40;103925.91;;;7.55
7830;BMP180;3960;51.86894000;5.39848000;2023-02-12T00:38:05;103919.72;;;7.54
7830;BMP180;3960;51.86894000;5.39848000;2023-02-12T00:40:30;103902.81;;;7.40
7830;BMP180;3960;51.86894000;5.39848000;2023-02-12T00:42:56;103923.31;;;7.50
7830;BMP180;3960;51.86894000;5.39848000;2023-02-12T00:45:21;103916.81;;;7.51
7830;BMP180;3960;51.86894000;5.39848000;2023-02-12T00:47:46;103911.56;;;7.46
7830;BMP180;3960;51.86894000;5.39848000;2023-02-12T00:50:11;103912.25;;;7.51
7830;BMP180;3960;51.86894000;5.39848000;2023-02-12T00:52:37;103918.75;;;7.50
7830;BMP180;3960;51.86894000;5.39848000;2023-02-12T00:55:02;103903.63;;;7.41
7830;BMP180;3960;51.86894000;5.39848000;2023-02-12T00:57:28;103921.44;;;7.50
7830;BMP180;3960;51.86894000;5.39848000;2023-02-12T00:59:53;103923.31;;;7.50
7830;BMP180;3960;51.86894000;5.39848000;2023-02-12T01:02:18;103908.88;;;7.46
7830;BMP180;3960;51.86894000;5.39848000;2023-02-12T01:04:44;103908.69;;;7.42
7830;BMP180;3960;51.86894000;5.39848000;2023-02-12T01:07:09;103909.97;;;7.45
7830;BMP180;3960;51.86894000;5.39848000;2023-02-12T01:09:35;103906.50;;;7.44
7830;BMP180;3960;51.86894000;5.39848000;2023-02-12T01:12:00;103901.84;;;7.36
7830;BMP180;3960;51.86894000;5.39848000;2023-02-12T01:14:26;103918.88;;;7.45
7830;BMP180;3960;51.86894000;5.39848000;2023-02-12T01:16:51;103902.16;;;7.35
7830;BMP180;3960;51.86894000;5.39848000;2023-02-12T01:19:17;103914.56;;;7.36
7830;BMP180;3960;51.86894000;5.39848000;2023-02-12T01:21:42;103896.41;;;7.28
7830;BMP180;3960;51.86894000;5.39848000;2023-02-12T01:24:08;103910.44;;;7.38
7830;BMP180;3960;51.86894000;5.39848000;2023-02-12T01:26:34;103890.84;;;7.24
7830;BMP180;3960;51.86894000;5.39848000;2023-02-12T01:29:02;103894.22;;;7.30
7830;BMP180;3960;51.86894000;5.39848000;2023-02-12T01:31:31;103877.50;;;7.20
7830;BMP180;3960;51.86894000;5.39848000;2023-02-12T01:33:58;103894.22;;;7.30
7830;BMP180;3960;51.86894000;5.39848000;2023-02-12T01:36:24;103902.16;;;7.35
7830;BMP180;3960;51.86894000;5.39848000;2023-02-12T01:38:50;103895.31;;;7.29
7830;BMP180;3960;51.86894000;5.39848000;2023-02-12T01:41:18;103899.75;;;7.33
7830;BMP180;3960;51.86894000;5.39848000;2023-02-12T01:43:45;103892.44;;;7.25
7830;BMP180;3960;51.86894000;5.39848000;2023-02-12T01:46:14;103902.94;;;7.35
7830;BMP180;3960;51.86894000;5.39848000;2023-02-12T01:48:42;103905.81;;;7.39
7830;BMP180;3960;51.86894000;5.39848000;2023-02-12T01:51:15;103901.53;;;7.38
7830;BMP180;3960;51.86894000;5.39848000;2023-02-12T01:53:46;103885.44;;;7.24
7830;BMP180;3960;51.86894000;5.39848000;2023-02-12T01:56:13;103918.53;;;7.38
7830;BMP180;3960;51.86894000;5.39848000;2023-02-12T01:58:41;103897.84;;;7.25
7830;BMP180;3960;51.86894000;5.39848000;2023-02-12T02:01:12;103910.53;;;7.33
7830;BMP180;3960;51.86894000;5.39848000;2023-02-12T02:03:38;103912.63;;;7.36
7830;BMP180;3960;51.86894000;5.39848000;2023-02-12T02:06:11;103914.84;;;7.34
7830;BMP180;3960;51.86894000;5.39848000;2023-02-12T02:08:38;103901.81;;;7.28
7830;BMP180;3960;51.86894000;5.39848000;2023-02-12T02:11:04;103918.94;;;7.32
7830;BMP180;3960;51.86894000;5.39848000;2023-02-12T02:13:50;103908.97;;;7.32
7830;BMP180;3960;51.86894000;5.39848000;2023-02-12T02:16:35;103907.69;;;7.30
7830;BMP180;3960;51.86894000;5.39848000;2023-02-12T02:33:40;103893.84;;;7.23
7830;BMP180;3960;51.86894000;5.39848000;2023-02-12T02:41:26;103879.47;;;7.06
7830;BMP180;3960;51.86894000;5.39848000;2023-02-12T02:43:53;103884.13;;;7.14
7830;BMP180;3960;51.86894000;5.39848000;2023-02-12T02:46:22;103894.28;;;7.17
7830;BMP180;3960;51.86894000;5.39848000;2023-02-12T02:48:52;103891.91;;;7.15
7830;BMP180;3960;51.86894000;5.39848000;2023-02-12T02:51:21;103894.78;;;7.19
7830;BMP180;3960;51.86894000;5.39848000;2023-02-12T02:53:53;103890.47;;;7.18
7830;BMP180;3960;51.86894000;5.39848000;2023-02-12T02:56:22;103874.53;;;7.08
7830;BMP180;3960;51.86894000;5.39848000;2023-02-12T02:59:01;103871.84;;;7.08
7830;BMP180;3960;51.86894000;5.39848000;2023-02-12T03:01:31;103877.13;;;7.13
7830;BMP180;3960;51.86894000;5.39848000;2023-02-12T03:04:05;103858.63;;;6.98
7830;BMP180;3960;51.86894000;5.39848000;2023-02-12T03:06:33;103888.28;;;7.20
7830;BMP180;3960;51.86894000;5.39848000;2023-02-12T03:09:08;103881.28;;;7.19
7830;BMP180;3960;51.86894000;5.39848000;2023-02-12T03:11:36;103873.03;;;7.15
7830;BMP180;3960;51.86894000;5.39848000;2023-02-12T03:14:09;103875.91;;;7.19
7830;BMP180;3960;51.86894000;5.39848000;2023-02-12T03:16:46;103866.53;;;7.16
7830;BMP180;3960;51.86894000;5.39848000;2023-02-12T03:19:20;103872.53;;;7.13
7830;BMP180;3960;51.86894000;5.39848000;2023-02-12T03:21:57;103882.06;;;7.19
7830;BMP180;3960;51.86894000;5.39848000;2023-02-12T03:24:32;103875.53;;;7.12
7830;BMP180;3960;51.86894000;5.39848000;2023-02-12T03:29:51;103859.97;;;7.09
7830;BMP180;3960;51.86894000;5.39848000;2023-02-12T03:35:57;103876.88;;;7.22
7830;BMP180;3960;51.86894000;5.39848000;2023-02-12T03:40:58;103881.47;;;7.22
7830;BMP180;3960;51.86894000;5.39848000;2023-02-12T03:43:44;103869.66;;;7.10
7830;BMP180;3960;51.86894000;5.39848000;2023-02-12T03:46:40;103886.38;;;7.20
7830;BMP180;3960;51.86894000;5.39848000;2023-02-12T03:51:43;103875.84;;;7.10
7830;BMP180;3960;51.86894000;5.39848000;2023-02-12T03:54:11;103869.16;;;7.08
7830;BMP180;3960;51.86894000;5.39848000;2023-02-12T03:57:00;103878.22;;;7.12
7830;BMP180;3960;51.86894000;5.39848000;2023-02-12T03:59:26;103880.44;;;7.10
7830;BMP180;3960;51.86894000;5.39848000;2023-02-12T04:01:53;103888.56;;;7.18
7830;BMP180;3960;51.86894000;5.39848000;2023-02-12T04:04:20;103895.88;;;7.18
7830;BMP180;3960;51.86894000;5.39848000;2023-02-12T04:06:46;103895.88;;;7.18
7830;BMP180;3960;51.86894000;5.39848000;2023-02-12T04:09:13;103889.03;;;7.12
7830;BMP180;3960;51.86894000;5.39848000;2023-02-12T04:11:49;103904.47;;;7.20
7830;BMP180;3960;51.86894000;5.39848000;2023-02-12T04:14:24;103907.16;;;7.20
7830;BMP180;3960;51.86894000;5.39848000;2023-02-12T04:24:59;103907.44;;;7.18
7830;BMP180;3960;51.86894000;5.39848000;2023-02-12T04:30:26;103905.38;;;7.15
7830;BMP180;3960;51.86894000;5.39848000;2023-02-12T04:32:57;103896.94;;;7.08
7830;BMP180;3960;51.86894000;5.39848000;2023-02-12T04:35:47;103910.75;;;7.15
7830;BMP180;3960;51.86894000;5.39848000;2023-02-12T04:38:24;103911.72;;;7.19
7830;BMP180;3960;51.86894000;5.39848000;2023-02-12T04:40:51;103909.03;;;7.19
7830;BMP180;3960;51.86894000;5.39848000;2023-02-12T04:43:32;103916.03;;;7.20
7830;BMP180;3960;51.86894000;5.39848000;2023-02-12T04:45:59;103915.34;;;7.15
7830;BMP180;3960;51.86894000;5.39848000;2023-02-12T04:48:24;103915.25;;;7.20
7830;BMP180;3960;51.86894000;5.39848000;2023-02-12T04:50:50;103906.97;;;7.16
7830;BMP180;3960;51.86894000;5.39848000;2023-02-12T04:53:15;103919.50;;;7.21
7830;BMP180;3960;51.86894000;5.39848000;2023-02-12T04:55:40;103905.69;;;7.14
7830;BMP180;3960;51.86894000;5.39848000;2023-02-12T04:58:06;103907.25;;;7.15
7830;BMP180;3960;51.86894000;5.39848000;2023-02-12T05:00:31;103903.47;;;7.16
7830;BMP180;3960;51.86894000;5.39848000;2023-02-12T05:02:57;103913.66;;;7.19
7830;BMP180;3960;51.86894000;5.39848000;2023-02-12T05:05:22;103926.50;;;7.22
7830;BMP180;3960;51.86894000;5.39848000;2023-02-12T05:07:48;103917.94;;;7.20
7830;BMP180;3960;51.86894000;5.39848000;2023-02-12T05:10:13;103899.97;;;7.15
7830;BMP180;3960;51.86894000;5.39848000;2023-02-12T05:12:38;103925.25;;;7.27
7830;BMP180;3960;51.86894000;5.39848000;2023-02-12T05:15:04;103924.78;;;7.25
7830;BMP180;3960;51.86894000;5.39848000;2023-02-12T05:17:29;103933.66;;;7.26
7830;BMP180;3960;51.86894000;5.39848000;2023-02-12T05:19:55;103926.69;;;7.25
7830;BMP180;3960;51.86894000;5.39848000;2023-02-12T05:22:20;103922.19;;;7.21
7830;BMP180;3960;51.86894000;5.39848000;2023-02-12T05:24:46;103930.78;;;7.22
7830;BMP180;3960;51.86894000;5.39848000;2023-02-12T05:27:11;103921.38;;;7.12
7830;BMP180;3960;51.86894000;5.39848000;2023-02-12T05:29:37;103921.22;;;7.17
7830;BMP180;3960;51.86894000;5.39848000;2023-02-12T05:32:02;103930.91;;;7.18
7830;BMP180;3960;51.86894000;5.39848000;2023-02-12T05:34:28;103926.31;;;7.18
7830;BMP180;3960;51.86894000;5.39848000;2023-02-12T05:36:53;103926.94;;;7.15
7830;BMP180;3960;51.86894000;5.39848000;2023-02-12T05:39:19;103901.16;;;7.01
7830;BMP180;3960;51.86894000;5.39848000;2023-02-12T05:41:44;103923.25;;;7.11
7830;BMP180;3960;51.86894000;5.39848000;2023-02-12T05:44:09;103926.94;;;7.15
7830;BMP180;3960;51.86894000;5.39848000;2023-02-12T05:46:39;103934.53;;;7.13
7830;BMP180;3960;51.86894000;5.39848000;2023-02-12T05:49:05;103930.25;;;7.12
7830;BMP180;3960;51.86894000;5.39848000;2023-02-12T05:51:30;103915.91;;;7.03
7830;BMP180;3960;51.86894000;5.39848000;2023-02-12T05:53:59;103920.56;;;7.11
7830;BMP180;3960;51.86894000;5.39848000;2023-02-12T05:56:27;103927.25;;;7.14
7830;BMP180;3960;51.86894000;5.39848000;2023-02-12T05:59:01;103926.44;;;7.13
7830;BMP180;3960;51.86894000;5.39848000;2023-02-12T06:01:30;103935.03;;;7.15
7830;BMP180;3960;51.86894000;5.39848000;2023-02-12T06:03:57;103916.09;;;7.07
7830;BMP180;3960;51.86894000;5.39848000;2023-02-12T06:06:24;103922.66;;;7.14
7830;BMP180;3960;51.86894000;5.39848000;2023-02-12T06:08:50;103916.56;;;7.09
7830;BMP180;3960;51.86894000;5.39848000;2023-02-12T06:11:16;103921.97;;;7.09
7830;BMP180;3960;51.86894000;5.39848000;2023-02-12T06:13:41;103933.13;;;7.16
7830;BMP180;3960;51.86894000;5.39848000;2023-02-12T06:16:15;103911.31;;;7.04
7830;BMP180;3960;51.86894000;5.39848000;2023-02-12T06:18:41;103914.94;;;6.99
7830;BMP180;3960;51.86894000;5.39848000;2023-02-12T06:21:06;103943.44;;;7.14
7830;BMP180;3960;51.86894000;5.39848000;2023-02-12T06:23:31;103928.63;;;7.11
7830;BMP180;3960;51.86894000;5.39848000;2023-02-12T06:25:57;103931.34;;;7.11
7830;BMP180;3960;51.86894000;5.39848000;2023-02-12T06:28:23;103933.84;;;7.08
7830;BMP180;3960;51.86894000;5.39848000;2023-02-12T06:30:48;103921.31;;;7.03
7830;BMP180;3960;51.86894000;5.39848000;2023-02-12T06:33:13;103920.03;;;7.01
7830;BMP180;3960;51.86894000;5.39848000;2023-02-12T06:35:39;103924.59;;;7.00
7830;BMP180;3960;51.86894000;5.39848000;2023-02-12T06:38:04;103939.56;;;7.06
7830;BMP180;3960;51.86894000;5.39848000;2023-02-12T06:40:30;103940.84;;;7.09
7830;BMP180;3960;51.86894000;5.39848000;2023-02-12T06:42:55;103931.78;;;7.05
7830;BMP180;3960;51.86894000;5.39848000;2023-02-12T06:45:21;103936.53;;;7.08
7830;BMP180;3960;51.86894000;5.39848000;2023-02-12T06:47:47;103946.22;;;7.09
7830;BMP180;3960;51.86894000;5.39848000;2023-02-12T06:50:12;103948.66;;;7.10
7830;BMP180;3960;51.86894000;5.39848000;2023-02-12T06:52:37;103927.13;;;6.97
7830;BMP180;3960;51.86894000;5.39848000;2023-02-12T06:55:03;103942.56;;;7.05
7830;BMP180;3960;51.86894000;5.39848000;2023-02-12T06:57:28;103946.84;;;7.06
7830;BMP180;3960;51.86894000;5.39848000;2023-02-12T06:59:54;103948.28;;;7.03
7830;BMP180;3960;51.86894000;5.39848000;2023-02-12T07:02:19;103950.03;;;7.08
7830;BMP180;3960;51.86894000;5.39848000;2023-02-12T07:04:45;103954.31;;;7.09
7830;BMP180;3960;51.86894000;5.39848000;2023-02-12T07:07:10;103948.28;;;7.03
7830;BMP180;3960;51.86894000;5.39848000;2023-02-12T07:09:35;103966.19;;;7.08
7830;BMP180;3960;51.86894000;5.39848000;2023-02-12T07:12:01;103958.25;;;7.03
7830;BMP180;3960;51.86894000;5.39848000;2023-02-12T07:14:26;103967.91;;;7.04
7830;BMP180;3960;51.86894000;5.39848000;2023-02-12T07:16:53;103971.91;;;7.06
7830;BMP180;3960;51.86894000;5.39848000;2023-02-12T07:19:18;103966.31;;;7.03
7830;BMP180;3960;51.86894000;5.39848000;2023-02-12T07:21:43;103975.03;;;7.00
7830;BMP180;3960;51.86894000;5.39848000;2023-02-12T07:24:10;103965.34;;;6.99
7830;BMP180;3960;51.86894000;5.39848000;2023-02-12T07:26:38;103960.09;;;6.94
7830;BMP180;3960;51.86894000;5.39848000;2023-02-12T07:29:04;103973.94;;;7.01
7830;BMP180;3960;51.86894000;5.39848000;2023-02-12T07:31:29;103971.84;;;6.98
7830;BMP180;3960;51.86894000;5.39848000;2023-02-12T07:33:56;103981.09;;;7.05
7830;BMP180;3960;51.86894000;5.39848000;2023-02-12T07:36:22;103986.97;;;7.07
7830;BMP180;3960;51.86894000;5.39848000;2023-02-12T07:38:48;103976.63;;;7.01
7830;BMP180;3960;51.86894000;5.39848000;2023-02-12T07:41:24;103980.63;;;7.03
7830;BMP180;3960;51.86894000;5.39848000;2023-02-12T07:43:59;103990.78;;;7.06
7830;BMP180;3960;51.86894000;5.39848000;2023-02-12T07:46:30;103991.09;;;7.05
7830;BMP180;3960;51.86894000;5.39848000;2023-02-12T07:48:57;103988.38;;;7.05
7830;BMP180;3960;51.86894000;5.39848000;2023-02-12T07:51:23;104002.06;;;7.08
7830;BMP180;3960;51.86894000;5.39848000;2023-02-12T07:53:50;103997.44;;;7.09
7830;BMP180;3960;51.86894000;5.39848000;2023-02-12T07:56:18;103984.09;;;7.04
7830;BMP180;3960;51.86894000;5.39848000;2023-02-12T07:58:45;103989.53;;;7.12
7830;BMP180;3960;51.86894000;5.39848000;2023-02-12T08:01:26;103981.59;;;7.07
7830;BMP180;3960;51.86894000;5.39848000;2023-02-12T08:03:52;104001.03;;;7.18
7830;BMP180;3960;51.86894000;5.39848000;2023-02-12T08:06:20;103995.13;;;7.16
7830;BMP180;3960;51.86894000;5.39848000;2023-02-12T08:08:46;103994.34;;;7.15
7830;BMP180;3960;51.86894000;5.39848000;2023-02-12T08:11:13;104008.97;;;7.22
7830;BMP180;3960;51.86894000;5.39848000;2023-02-12T08:13:39;104009.47;;;7.24
7830;BMP180;3960;51.86894000;5.39848000;2023-02-12T08:16:07;104004.41;;;7.23
7830;BMP180;3960;51.86894000;5.39848000;2023-02-12T08:18:34;104012.38;;;7.28
7830;BMP180;3960;51.86894000;5.39848000;2023-02-12T08:21:07;104019.03;;;7.30
7830;BMP180;3960;51.86894000;5.39848000;2023-02-12T08:23:33;104022.25;;;7.32
7830;BMP180;3960;51.86894000;5.39848000;2023-02-12T08:26:13;103993.13;;;7.21
7830;BMP180;3960;51.86894000;5.39848000;2023-02-12T08:28:45;104017.63;;;7.33
7830;BMP180;3960;51.86894000;5.39848000;2023-02-12T08:31:13;104017.31;;;7.34
7830;BMP180;3960;51.86894000;5.39848000;2023-02-12T08:33:38;104022.91;;;7.38
7830;BMP180;3960;51.86894000;5.39848000;2023-02-12T08:36:09;104017.31;;;7.34
7830;BMP180;3960;51.86894000;5.39848000;2023-02-12T08:38:35;104026.88;;;7.40
7830;BMP180;3960;51.86894000;5.39848000;2023-02-12T08:41:03;104040.38;;;7.40
7830;BMP180;3960;51.86894000;5.39848000;2023-02-12T08:43:28;104037.19;;;7.38
7830;BMP180;3960;51.86894000;5.39848000;2023-02-12T08:45:54;104037.84;;;7.44
7830;BMP180;3960;51.86894000;5.39848000;2023-02-12T08:48:21;104029.75;;;7.44
7830;BMP180;3960;51.86894000;5.39848000;2023-02-12T08:50:47;104014.34;;;7.36
7830;BMP180;3960;51.86894000;5.39848000;2023-02-12T08:53:12;104023.91;;;7.42
7830;BMP180;3960;51.86894000;5.39848000;2023-02-12T08:55:37;104018.50;;;7.42
7830;BMP180;3960;51.86894000;5.39848000;2023-02-12T08:58:03;104022.47;;;7.44
7830;BMP180;3960;51.86894000;5.39848000;2023-02-12T09:00:28;104030.75;;;7.48
7830;BMP180;3960;51.86894000;5.39848000;2023-02-12T09:02:53;104025.06;;;7.49
7830;BMP180;3960;51.86894000;5.39848000;2023-02-12T09:05:19;104052.44;;;7.65
7830;BMP180;3960;51.86894000;5.39848000;2023-02-12T09:07:44;104027.34;;;7.56
7830;BMP180;3960;51.86894000;5.39848000;2023-02-12T09:10:09;104013.56;;;7.44
7830;BMP180;3960;51.86894000;5.39848000;2023-02-12T09:12:35;104045.81;;;7.71
7830;BMP180;3960;51.86894000;5.39848000;2023-02-12T09:15:00;104046.63;;;7.71
7830;BMP180;3960;51.86894000;5.39848000;2023-02-12T09:17:25;104052.22;;;7.75
7830;BMP180;3960;51.86894000;5.39848000;2023-02-12T09:19:52;104045.22;;;7.74
7830;BMP180;3960;51.86894000;5.39848000;2023-02-12T09:22:17;104035.03;;;7.71
7830;BMP180;3960;51.86894000;5.39848000;2023-02-12T09:24:43;104028.66;;;7.67
7830;BMP180;3960;51.86894000;5.39848000;2023-02-12T09:27:08;104062.13;;;7.88
7830;BMP180;3960;51.86894000;5.39848000;2023-02-12T09:29:33;104033.78;;;7.77
7830;BMP180;3960;51.86894000;5.39848000;2023-02-12T09:31:59;104046.22;;;7.86
7830;BMP180;3960;51.86894000;5.39848000;2023-02-12T09:34:26;104045.75;;;7.84
7830;BMP180;3960;51.86894000;5.39848000;2023-02-12T09:36:51;104054.41;;;7.95
7830;BMP180;3960;51.86894000;5.39848000;2023-02-12T09:39:17;104048.19;;;7.94
7830;BMP180;3960;51.86894000;5.39848000;2023-02-12T09:41:59;104034.81;;;7.89
7830;BMP180;3960;51.86894000;5.39848000;2023-02-12T09:47:12;104057.91;;;8.03
7830;BMP180;3960;51.86894000;5.39848000;2023-02-12T09:50:41;104058.09;;;8.07
7830;BMP180;3960;51.86894000;5.39848000;2023-02-12T09:52:47;104058.59;;;8.09
7830;BMP180;3960;51.86894000;5.39848000;2023-02-12T09:55:16;104054.47;;;8.11
7830;BMP180;3960;51.86894000;5.39848000;2023-02-12T09:57:43;104054.47;;;8.11
7830;BMP180;3960;51.86894000;5.39848000;2023-02-12T10:00:10;104056.59;;;8.14
7830;BMP180;3960;51.86894000;5.39848000;2023-02-12T10:02:39;104057.06;;;8.16
7830;BMP180;3960;51.86894000;5.39848000;2023-02-12T10:05:18;104066.63;;;8.22
7830;BMP180;3960;51.86894000;5.39848000;2023-02-12T10:07:55;104069.03;;;8.24
7830;BMP180;3960;51.86894000;5.39848000;2023-02-12T10:13:19;104069.97;;;8.28
7830;BMP180;3960;51.86894000;5.39848000;2023-02-12T10:15:55;104071.25;;;8.30
7830;BMP180;3960;51.86894000;5.39848000;2023-02-12T10:18:39;104060.94;;;8.32
7830;BMP180;3960;51.86894000;5.39848000;2023-02-12T10:21:26;104069.22;;;8.36
7830;BMP180;3960;51.86894000;5.39848000;2023-02-12T10:24:14;104064.28;;;8.38
7830;BMP180;3960;51.86894000;5.39848000;2023-02-12T10:26:48;104066.38;;;8.41
7830;BMP180;3960;51.86894000;5.39848000;2023-02-12T10:29:24;104060.66;;;8.42
7830;BMP180;3960;51.86894000;5.39848000;2023-02-12T10:32:32;104064.16;;;8.43
7830;BMP180;3960;51.86894000;5.39848000;2023-02-12T10:35:00;104060.38;;;8.44
7830;BMP180;3960;51.86894000;5.39848000;2023-02-12T10:37:47;104065.63;;;8.49
7830;BMP180;3960;51.86894000;5.39848000;2023-02-12T10:40:17;104062.78;;;8.54
7830;BMP180;3960;51.86894000;5.39848000;2023-02-12T10:42:47;104052.28;;;8.52
7830;BMP180;3960;51.86894000;5.39848000;2023-02-12T10:45:19;104064.22;;;8.60
7830;BMP180;3960;51.86894000;5.39848000;2023-02-12T10:47:45;104060.41;;;8.61
7830;BMP180;3960;51.86894000;5.39848000;2023-02-12T10:52:48;104052.78;;;8.63
7830;BMP180;3960;51.86894000;5.39848000;2023-02-12T10:55:32;104058.03;;;8.68
7830;BMP180;3960;51.86894000;5.39848000;2023-02-12T10:57:59;104055.34;;;8.68
7830;BMP180;3960;51.86894000;5.39848000;2023-02-12T11:00:35;104055.03;;;8.69
7830;BMP180;3960;51.86894000;5.39848000;2023-02-12T11:03:08;104062.81;;;8.70
7830;BMP180;3960;51.86894000;5.39848000;2023-02-12T11:05:43;104064.41;;;8.71
7830;BMP180;3960;51.86894000;5.39848000;2023-02-12T11:11:08;104068.09;;;8.75
7830;BMP180;3960;51.86894000;5.39848000;2023-02-12T11:13:35;104061.25;;;8.78
7830;BMP180;3960;51.86894000;5.39848000;2023-02-12T11:16:01;104064.13;;;8.81
7830;BMP180;3960;51.86894000;5.39848000;2023-02-12T11:18:29;104057.28;;;8.84
7830;BMP180;3960;51.86894000;5.39848000;2023-02-12T11:21:10;104056.78;;;8.82
7830;BMP180;3960;51.86894000;5.39848000;2023-02-12T11:23:41;104060.94;;;8.88
7830;BMP180;3960;51.86894000;5.39848000;2023-02-12T11:28:56;104057.63;;;8.91
7830;BMP180;3960;51.86894000;5.39848000;2023-02-12T11:31:33;104050.63;;;8.90
7830;BMP180;3960;51.86894000;5.39848000;2023-02-12T11:34:19;104051.88;;;8.92
7830;BMP180;3960;51.86894000;5.39848000;2023-02-12T11:36:46;104032.16;;;8.83
7830;BMP180;3960;51.86894000;5.39848000;2023-02-12T11:39:32;104021.31;;;8.83
7830;BMP180;3960;51.86894000;5.39848000;2023-02-12T11:42:05;104048.25;;;8.97
7830;BMP180;3960;51.86894000;5.39848000;2023-02-12T11:44:40;104039.63;;;8.95
7830;BMP180;3960;51.86894000;5.39848000;2023-02-12T11:47:09;104044.59;;;9.01
7830;BMP180;3960;51.86894000;5.39848000;2023-02-12T11:52:40;104041.72;;;9.06
7830;BMP180;3960;51.86894000;5.39848000;2023-02-12T11:55:18;104024.41;;;9.07
7830;BMP180;3960;51.86894000;5.39848000;2023-02-12T11:57:47;104020.25;;;9.10
7830;BMP180;3960;51.86894000;5.39848000;2023-02-12T12:00:21;104024.88;;;9.18
7830;BMP180;3960;51.86894000;5.39848000;2023-02-12T12:03:03;104029.34;;;9.22
7830;BMP180;3960;51.86894000;5.39848000;2023-02-12T12:05:36;104030.59;;;9.25
7830;BMP180;3960;51.86894000;5.39848000;2023-02-12T12:08:09;104013.41;;;9.12
7830;BMP180;3960;51.86894000;5.39848000;2023-02-12T12:10:44;104035.53;;;9.23
7830;BMP180;3960;51.86894000;5.39848000;2023-02-12T12:13:14;104033.94;;;9.22
7830;BMP180;3960;51.86894000;5.39848000;2023-02-12T12:15:45;104023.91;;;9.22
7830;BMP180;3960;51.86894000;5.39848000;2023-02-12T12:18:58;103982.84;;;9.03
7830;BMP180;3960;51.86894000;5.39848000;2023-02-12T12:21:46;104007.03;;;9.25
7830;BMP180;3960;51.86894000;5.39848000;2023-02-12T12:24:20;104013.53;;;9.33
7830;BMP180;3960;51.86894000;5.39848000;2023-02-12T12:26:54;104005.13;;;9.34
7830;BMP180;3960;51.86894000;5.39848000;2023-02-12T12:29:43;104011.00;;;9.36
7830;BMP180;3960;51.86894000;5.39848000;2023-02-12T12:32:13;103984.28;;;9.26
7830;BMP180;3960;51.86894000;5.39848000;2023-02-12T12:34:40;103980.47;;;9.27
7830;BMP180;3960;51.86894000;5.39848000;2023-02-12T12:37:47;104000.19;;;9.44
7830;BMP180;3960;51.86894000;5.39848000;2023-02-12T12:42:58;103991.59;;;9.43
7830;BMP180;3960;51.86894000;5.39848000;2023-02-12T12:48:33;103996.66;;;9.44
7830;BMP180;3960;51.86894000;5.39848000;2023-02-12T12:59:55;103983.44;;;9.51
7830;BMP180;3960;51.86894000;5.39848000;2023-02-12T13:02:39;103986.16;;;9.51
7830;BMP180;3960;51.86894000;5.39848000;2023-02-12T13:05:32;103986.63;;;9.53
7830;BMP180;3960;51.86894000;5.39848000;2023-02-12T13:08:14;103978.84;;;9.51
7830;BMP180;3960;51.86894000;5.39848000;2023-02-12T13:11:22;103966.25;;;9.55
7830;BMP180;3960;51.86894000;5.39848000;2023-02-12T13:14:01;103955.28;;;9.52
7830;BMP180;3960;51.86894000;5.39848000;2023-02-12T13:16:44;103957.66;;;9.53
7830;BMP180;3960;51.86894000;5.39848000;2023-02-12T13:22:21;103958.28;;;9.59
7830;BMP180;3960;51.86894000;5.39848000;2023-02-12T13:27:21;103961.28;;;9.66
7830;BMP180;3960;51.86894000;5.39848000;2023-02-12T13:32:49;103952.06;;;9.67
7830;BMP180;3960;51.86894000;5.39848000;2023-02-12T13:35:19;103955.22;;;9.69
7830;BMP180;3960;51.86894000;5.39848000;2023-02-12T13:37:48;103956.00;;;9.69
7830;BMP180;3960;51.86894000;5.39848000;2023-02-12T13:40:18;103951.72;;;9.68
7830;BMP180;3960;51.86894000;5.39848000;2023-02-12T13:45:55;103949.34;;;9.67
7830;BMP180;3960;51.86894000;5.39848000;2023-02-12T13:51:05;103946.63;;;9.67
7830;BMP180;3960;51.86894000;5.39848000;2023-02-12T13:56:46;103944.22;;;9.65
7830;BMP180;3960;51.86894000;5.39848000;2023-02-12T14:02:00;103946.78;;;9.62
7830;BMP180;3960;51.86894000;5.39848000;2023-02-12T14:04:34;103939.00;;;9.60
7830;BMP180;3960;51.86894000;5.39848000;2023-02-12T14:07:05;103935.81;;;9.58
7830;BMP180;3960;51.86894000;5.39848000;2023-02-12T14:14:48;103925.81;;;9.59
7830;BMP180;3960;51.86894000;5.39848000;2023-02-12T14:27:57;103924.56;;;9.48
7830;BMP180;3960;51.86894000;5.39848000;2023-02-12T14:30:29;103919.94;;;9.48
7830;BMP180;3960;51.86894000;5.39848000;2023-02-12T14:32:57;103931.69;;;9.52
7830;BMP180;3960;51.86894000;5.39848000;2023-02-12T14:37:52;103921.69;;;9.53
7830;BMP180;3960;51.86894000;5.39848000;2023-02-12T14:40:39;103922.47;;;9.53
7830;BMP180;3960;51.86894000;5.39848000;2023-02-12T14:45:55;103908.19;;;9.44
7830;BMP180;3960;51.86894000;5.39848000;2023-02-12T14:48:47;103920.88;;;9.52
7830;BMP180;3960;51.86894000;5.39848000;2023-02-12T14:54:40;103913.91;;;9.51